Conway, Iowa
Current Conditions -  °F | °C
As of 8:15 AM on Monday 26 Jan 2015 (Local Time) from KICL Reporting Station
Clear Clear  
Wind Chill: 18°   Ceiling: Unl
Heat Index: 27°   Visibility: 7mi
Dew Point: 27°   Wind: 8mph
Humidity: 100%   Direction: 190°S
Pressure: 29.9"   Gusts: NA
Location:  40.6544°N, 94.7435°W
Report Text: KICL 261415Z AUTO 19007KT 7SM CLR M03/M03 A2990 RMK AO2
Loading
Personal Weather Stations






























Interactive Weather Map New forecast layout! Learn more

10-Day Weather Forecast

Advertisements
Track Severe Weather on mobile